sensor_id;sensor_type;location;lat;lon;timestamp;pressure;altitude;pressure_sealevel;temperature;humidity
14966;BME280;7577;45.226;5.798;2023-08-08T00:02:20;99312.08;;;25.87;35.82
14966;BME280;7577;45.226;5.798;2023-08-08T00:04:51;99303.70;;;25.87;35.78
14966;BME280;7577;45.226;5.798;2023-08-08T00:07:21;99310.11;;;25.87;35.79
14966;BME280;7577;45.226;5.798;2023-08-08T00:09:51;99307.10;;;25.86;35.79
14966;BME280;7577;45.226;5.798;2023-08-08T00:12:21;99314.30;;;25.87;35.79
14966;BME280;7577;45.226;5.798;2023-08-08T00:14:52;99310.11;;;25.87;35.77
14966;BME280;7577;45.226;5.798;2023-08-08T00:17:22;99307.10;;;25.86;35.79
14966;BME280;7577;45.226;5.798;2023-08-08T00:19:52;99303.84;;;25.84;35.80
14966;BME280;7577;45.226;5.798;2023-08-08T00:25:00;99301.52;;;25.86;35.82
14966;BME280;7577;45.226;5.798;2023-08-08T00:27:30;99301.66;;;25.84;35.85
14966;BME280;7577;45.226;5.798;2023-08-08T00:30:01;99307.59;;;25.82;35.89
14966;BME280;7577;45.226;5.798;2023-08-08T00:32:31;99301.75;;;25.81;35.92
14966;BME280;7577;45.226;5.798;2023-08-08T00:35:01;99303.75;;;25.81;35.92
14966;BME280;7577;45.226;5.798;2023-08-08T00:37:31;99302.92;;;25.80;35.95
14966;BME280;7577;45.226;5.798;2023-08-08T00:40:01;99299.91;;;25.79;35.98
14966;BME280;7577;45.226;5.798;2023-08-08T00:42:31;99292.72;;;25.78;35.98
14966;BME280;7577;45.226;5.798;2023-08-08T00:45:02;99291.10;;;25.77;35.99
14966;BME280;7577;45.226;5.798;2023-08-08T00:47:34;99292.24;;;25.76;36.02
14966;BME280;7577;45.226;5.798;2023-08-08T00:52:44;99290.50;;;25.78;36.04
14966;BME280;7577;45.226;5.798;2023-08-08T00:55:15;99290.98;;;25.74;36.07
14966;BME280;7577;45.226;5.798;2023-08-08T00:57:45;99290.76;;;25.73;36.08
14966;BME280;7577;45.226;5.798;2023-08-08T01:00:16;99290.19;;;25.73;36.07
14966;BME280;7577;45.226;5.798;2023-08-08T01:02:46;99289.93;;;25.72;36.05
14966;BME280;7577;45.226;5.798;2023-08-08T01:05:17;99287.52;;;25.71;36.02
14966;BME280;7577;45.226;5.798;2023-08-08T01:10:31;99290.19;;;25.73;36.03
14966;BME280;7577;45.226;5.798;2023-08-08T01:13:04;99288.45;;;25.69;36.06
14966;BME280;7577;45.226;5.798;2023-08-08T01:15:35;99287.63;;;25.68;36.04
14966;BME280;7577;45.226;5.798;2023-08-08T01:18:09;99285.44;;;25.68;36.05
14966;BME280;7577;45.226;5.798;2023-08-08T01:20:39;99283.44;;;25.68;36.03
14966;BME280;7577;45.226;5.798;2023-08-08T01:23:14;99276.84;;;25.67;36.04
14966;BME280;7577;45.226;5.798;2023-08-08T01:25:45;99284.39;;;25.66;36.02
14966;BME280;7577;45.226;5.798;2023-08-08T01:28:19;99284.17;;;25.65;36.05
14966;BME280;7577;45.226;5.798;2023-08-08T01:30:47;99279.98;;;25.65;36.03
14966;BME280;7577;45.226;5.798;2023-08-08T01:33:18;99284.73;;;25.65;36.07
14966;BME280;7577;45.226;5.798;2023-08-08T01:35:52;99283.95;;;25.64;36.05
14966;BME280;7577;45.226;5.798;2023-08-08T01:41:04;99285.34;;;25.64;36.05
14966;BME280;7577;45.226;5.798;2023-08-08T01:43:34;99291.84;;;25.62;36.07
14966;BME280;7577;45.226;5.798;2023-08-08T01:46:05;99291.05;;;25.62;36.06
14966;BME280;7577;45.226;5.798;2023-08-08T01:48:35;99297.42;;;25.62;36.07
14966;BME280;7577;45.226;5.798;2023-08-08T01:51:05;99299.42;;;25.62;36.06
14966;BME280;7577;45.226;5.798;2023-08-08T01:53:36;99296.16;;;25.60;36.07
14966;BME280;7577;45.226;5.798;2023-08-08T01:56:06;99299.52;;;25.59;36.11
14966;BME280;7577;45.226;5.798;2023-08-08T02:01:15;99293.38;;;25.60;36.12
14966;BME280;7577;45.226;5.798;2023-08-08T02:03:45;99298.86;;;25.56;36.15
14966;BME280;7577;45.226;5.798;2023-08-08T02:06:15;99291.05;;;25.56;36.14
14966;BME280;7577;45.226;5.798;2023-08-08T02:08:46;99288.48;;;25.57;36.15
14966;BME280;7577;45.226;5.798;2023-08-08T02:11:16;99299.42;;;25.56;36.16
14966;BME280;7577;45.226;5.798;2023-08-08T02:13:46;99300.25;;;25.56;36.16
14966;BME280;7577;45.226;5.798;2023-08-08T02:16:16;99290.61;;;25.54;36.18
14966;BME280;7577;45.226;5.798;2023-08-08T02:18:46;99295.24;;;25.56;36.20
14966;BME280;7577;45.226;5.798;2023-08-08T02:21:16;99294.55;;;25.53;36.20
14966;BME280;7577;45.226;5.798;2023-08-08T02:23:47;99294.33;;;25.52;36.21
14966;BME280;7577;45.226;5.798;2023-08-08T02:26:17;99296.32;;;25.51;36.23
14966;BME280;7577;45.226;5.798;2023-08-08T02:28:47;99300.50;;;25.51;36.24
14966;BME280;7577;45.226;5.798;2023-08-08T02:31:17;99299.11;;;25.51;36.25
14966;BME280;7577;45.226;5.798;2023-08-08T02:33:50;99301.42;;;25.49;36.25
14966;BME280;7577;45.226;5.798;2023-08-08T02:36:20;99299.23;;;25.49;36.25
14966;BME280;7577;45.226;5.798;2023-08-08T02:41:28;99298.86;;;25.50;36.29
14966;BME280;7577;45.226;5.798;2023-08-08T02:43:58;99300.37;;;25.48;36.30
14966;BME280;7577;45.226;5.798;2023-08-08T02:46:28;99298.98;;;25.48;36.28
14966;BME280;7577;45.226;5.798;2023-08-08T02:48:58;99302.38;;;25.47;36.31
14966;BME280;7577;45.226;5.798;2023-08-08T02:51:29;99303.30;;;25.45;36.33
14966;BME280;7577;45.226;5.798;2023-08-08T02:53:59;99305.17;;;25.47;36.35
14966;BME280;7577;45.226;5.798;2023-08-08T02:56:29;99297.50;;;25.44;36.36
14966;BME280;7577;45.226;5.798;2023-08-08T02:58:59;99301.11;;;25.45;36.35
14966;BME280;7577;45.226;5.798;2023-08-08T03:01:29;99296.67;;;25.44;36.36
14966;BME280;7577;45.226;5.798;2023-08-08T03:03:59;99299.46;;;25.44;36.36
14966;BME280;7577;45.226;5.798;2023-08-08T03:06:32;99297.84;;;25.43;36.37
14966;BME280;7577;45.226;5.798;2023-08-08T03:09:02;99294.83;;;25.42;36.38
14966;BME280;7577;45.226;5.798;2023-08-08T03:11:32;99302.38;;;25.41;36.39
14966;BME280;7577;45.226;5.798;2023-08-08T03:14:02;99304.59;;;25.42;36.37
14966;BME280;7577;45.226;5.798;2023-08-08T03:16:33;99306.34;;;25.40;36.40
14966;BME280;7577;45.226;5.798;2023-08-08T03:19:03;99310.52;;;25.40;36.41
14966;BME280;7577;45.226;5.798;2023-08-08T03:24:11;99304.59;;;25.42;36.42
14966;BME280;7577;45.226;5.798;2023-08-08T03:26:41;99314.48;;;25.39;36.42
14966;BME280;7577;45.226;5.798;2023-08-08T03:29:11;99318.19;;;25.37;36.43
14966;BME280;7577;45.226;5.798;2023-08-08T03:31:42;99323.77;;;25.37;36.45
14966;BME280;7577;45.226;5.798;2023-08-08T03:34:13;99319.36;;;25.36;36.46
14966;BME280;7577;45.226;5.798;2023-08-08T03:36:43;99317.17;;;25.36;36.47
14966;BME280;7577;45.226;5.798;2023-08-08T03:39:14;99323.55;;;25.36;36.46
14966;BME280;7577;45.226;5.798;2023-08-08T03:41:44;99322.50;;;25.35;36.49
14966;BME280;7577;45.226;5.798;2023-08-08T03:44:15;99316.70;;;25.34;36.50
14966;BME280;7577;45.226;5.798;2023-08-08T03:46:45;99313.34;;;25.34;36.52
14966;BME280;7577;45.226;5.798;2023-08-08T03:49:16;99314.03;;;25.31;36.50
14966;BME280;7577;45.226;5.798;2023-08-08T03:51:46;99309.03;;;25.31;36.52
14966;BME280;7577;45.226;5.798;2023-08-08T03:54:18;99315.43;;;25.31;36.54
14966;BME280;7577;45.226;5.798;2023-08-08T03:56:48;99312.20;;;25.29;36.56
14966;BME280;7577;45.226;5.798;2023-08-08T03:59:18;99310.80;;;25.29;36.58
14966;BME280;7577;45.226;5.798;2023-08-08T04:04:26;99316.83;;;25.31;36.57
14966;BME280;7577;45.226;5.798;2023-08-08T04:06:56;99320.08;;;25.27;36.59
14966;BME280;7577;45.226;5.798;2023-08-08T04:09:26;99319.83;;;25.26;36.57
14966;BME280;7577;45.226;5.798;2023-08-08T04:11:56;99322.62;;;25.26;36.59
14966;BME280;7577;45.226;5.798;2023-08-08T04:14:27;99324.58;;;25.26;36.58
14966;BME280;7577;45.226;5.798;2023-08-08T04:16:57;99325.53;;;25.24;36.60
14966;BME280;7577;45.226;5.798;2023-08-08T04:19:28;99329.94;;;25.25;36.62
14966;BME280;7577;45.226;5.798;2023-08-08T04:24:37;99330.16;;;25.26;36.62
14966;BME280;7577;45.226;5.798;2023-08-08T04:27:08;99330.06;;;25.22;36.61
14966;BME280;7577;45.226;5.798;2023-08-08T04:29:38;99334.02;;;25.21;36.63
14966;BME280;7577;45.226;5.798;2023-08-08T04:32:09;99340.39;;;25.22;36.64
14966;BME280;7577;45.226;5.798;2023-08-08T04:34:39;99339.59;;;25.21;36.65
14966;BME280;7577;45.226;5.798;2023-08-08T04:37:09;99340.17;;;25.21;36.65
14966;BME280;7577;45.226;5.798;2023-08-08T04:39:39;99338.55;;;25.20;36.65
14966;BME280;7577;45.226;5.798;2023-08-08T04:42:09;99336.33;;;25.19;36.67
14966;BME280;7577;45.226;5.798;2023-08-08T04:44:39;99341.45;;;25.17;36.68
14966;BME280;7577;45.226;5.798;2023-08-08T04:47:09;99338.89;;;25.18;36.66
14966;BME280;7577;45.226;5.798;2023-08-08T04:49:39;99343.65;;;25.18;36.68
14966;BME280;7577;45.226;5.798;2023-08-08T04:52:10;99343.20;;;25.16;36.67
14966;BME280;7577;45.226;5.798;2023-08-08T04:54:40;99341.80;;;25.16;36.66
14966;BME280;7577;45.226;5.798;2023-08-08T04:57:10;99339.36;;;25.14;36.64
14966;BME280;7577;45.226;5.798;2023-08-08T04:59:40;99337.63;;;25.16;36.66
14966;BME280;7577;45.226;5.798;2023-08-08T05:02:11;99331.34;;;25.13;36.67
14966;BME280;7577;45.226;5.798;2023-08-08T05:04:41;99330.30;;;25.11;36.64
14966;BME280;7577;45.226;5.798;2023-08-08T05:07:11;99332.73;;;25.13;36.64
14966;BME280;7577;45.226;5.798;2023-08-08T05:09:41;99333.56;;;25.13;36.72
14966;BME280;7577;45.226;5.798;2023-08-08T05:12:11;99334.39;;;25.14;36.71
14966;BME280;7577;45.226;5.798;2023-08-08T05:14:42;99337.97;;;25.14;36.68
14966;BME280;7577;45.226;5.798;2023-08-08T05:19:50;99342.16;;;25.20;36.65
14966;BME280;7577;45.226;5.798;2023-08-08T05:22:20;99336.93;;;25.19;36.67
14966;BME280;7577;45.226;5.798;2023-08-08T05:24:50;99336.11;;;25.18;36.97
14966;BME280;7577;45.226;5.798;2023-08-08T05:27:20;99339.13;;;25.19;37.14
14966;BME280;7577;45.226;5.798;2023-08-08T05:29:50;99341.91;;;25.19;37.14
14966;BME280;7577;45.226;5.798;2023-08-08T05:32:21;99340.52;;;25.19;37.12
14966;BME280;7577;45.226;5.798;2023-08-08T05:34:52;99344.95;;;25.20;37.01
14966;BME280;7577;45.226;5.798;2023-08-08T05:37:22;99344.34;;;25.21;37.07
14966;BME280;7577;45.226;5.798;2023-08-08T05:39:53;99348.88;;;25.19;37.42
14966;BME280;7577;45.226;5.798;2023-08-08T05:42:23;99344.70;;;25.19;37.58
14966;BME280;7577;45.226;5.798;2023-08-08T05:44:53;99356.67;;;25.20;37.60
14966;BME280;7577;45.226;5.798;2023-08-08T05:47:23;99353.66;;;25.19;37.65
14966;BME280;7577;45.226;5.798;2023-08-08T05:49:53;99355.85;;;25.19;37.58
14966;BME280;7577;45.226;5.798;2023-08-08T05:52:24;99355.50;;;25.21;37.56
14966;BME280;7577;45.226;5.798;2023-08-08T05:54:54;99363.52;;;25.22;37.59
14966;BME280;7577;45.226;5.798;2023-08-08T05:57:25;99369.10;;;25.22;37.60
14966;BME280;7577;45.226;5.798;2023-08-08T05:59:55;99366.88;;;25.22;37.76
14966;BME280;7577;45.226;5.798;2023-08-08T06:02:25;99366.31;;;25.22;37.83
14966;BME280;7577;45.226;5.798;2023-08-08T06:04:55;99366.19;;;25.25;37.63
14966;BME280;7577;45.226;5.798;2023-08-08T06:07:25;99366.70;;;25.27;37.78
14966;BME280;7577;45.226;5.798;2023-08-08T06:09:55;99357.73;;;25.27;37.74
14966;BME280;7577;45.226;5.798;2023-08-08T06:12:25;99358.78;;;25.29;37.72
14966;BME280;7577;45.226;5.798;2023-08-08T06:14:56;99365.53;;;25.28;37.66
14966;BME280;7577;45.226;5.798;2023-08-08T06:17:26;99363.91;;;25.27;37.58
14966;BME280;7577;45.226;5.798;2023-08-08T06:19:57;99361.66;;;25.26;37.61
14966;BME280;7577;45.226;5.798;2023-08-08T06:22:27;99362.01;;;25.25;37.60
14966;BME280;7577;45.226;5.798;2023-08-08T06:24:57;99368.16;;;25.24;37.54
14966;BME280;7577;45.226;5.798;2023-08-08T06:27:28;99372.11;;;25.23;37.56
14966;BME280;7577;45.226;5.798;2023-08-08T06:29:58;99373.28;;;25.22;37.59
14966;BME280;7577;45.226;5.798;2023-08-08T06:35:08;99375.50;;;25.23;37.61
14966;BME280;7577;45.226;5.798;2023-08-08T06:37:38;99381.77;;;25.20;37.54
14966;BME280;7577;45.226;5.798;2023-08-08T06:40:11;99374.57;;;25.19;37.54
14966;BME280;7577;45.226;5.798;2023-08-08T06:42:41;99379.55;;;25.19;37.54
14966;BME280;7577;45.226;5.798;2023-08-08T06:47:49;99381.65;;;25.22;37.51
14966;BME280;7577;45.226;5.798;2023-08-08T06:50:20;99375.14;;;25.18;37.44
14966;BME280;7577;45.226;5.798;2023-08-08T06:52:50;99378.98;;;25.20;37.39
14966;BME280;7577;45.226;5.798;2023-08-08T06:55:20;99380.50;;;25.17;37.47
14966;BME280;7577;45.226;5.798;2023-08-08T06:57:50;99381.55;;;25.19;37.45
14966;BME280;7577;45.226;5.798;2023-08-08T07:00:21;99387.69;;;25.18;37.43
14966;BME280;7577;45.226;5.798;2023-08-08T07:02:52;99387.12;;;25.19;37.43
14966;BME280;7577;45.226;5.798;2023-08-08T07:05:22;99385.47;;;25.18;37.49
14966;BME280;7577;45.226;5.798;2023-08-08T07:07:53;99384.33;;;25.19;37.45
14966;BME280;7577;45.226;5.798;2023-08-08T07:10:23;99387.12;;;25.19;37.40
14966;BME280;7577;45.226;5.798;2023-08-08T07:12:53;99383.73;;;25.19;37.38
14966;BME280;7577;45.226;5.798;2023-08-08T07:15:23;99374.57;;;25.19;37.41
14966;BME280;7577;45.226;5.798;2023-08-08T07:20:31;99371.89;;;25.22;37.33
14966;BME280;7577;45.226;5.798;2023-08-08T07:23:02;99374.57;;;25.19;37.31
14966;BME280;7577;45.226;5.798;2023-08-08T07:25:32;99376.77;;;25.19;37.31
14966;BME280;7577;45.226;5.798;2023-08-08T07:28:03;99379.20;;;25.21;37.29
14966;BME280;7577;45.226;5.798;2023-08-08T07:30:33;99373.75;;;25.18;37.40
14966;BME280;7577;45.226;5.798;2023-08-08T07:33:05;99372.58;;;25.19;37.37
14966;BME280;7577;45.226;5.798;2023-08-08T07:35:36;99376.41;;;25.21;37.28
14966;BME280;7577;45.226;5.798;2023-08-08T07:38:07;99381.99;;;25.21;37.21
14966;BME280;7577;45.226;5.798;2023-08-08T07:40:38;99381.65;;;25.22;37.19
14966;BME280;7577;45.226;5.798;2023-08-08T07:43:09;99381.65;;;25.22;37.20
14966;BME280;7577;45.226;5.798;2023-08-08T07:45:39;99380.25;;;25.22;37.17
14966;BME280;7577;45.226;5.798;2023-08-08T07:48:10;99383.05;;;25.22;37.14
14966;BME280;7577;45.226;5.798;2023-08-08T07:50:40;99377.47;;;25.22;37.13
14966;BME280;7577;45.226;5.798;2023-08-08T07:53:11;99376.07;;;25.22;37.09
14966;BME280;7577;45.226;5.798;2023-08-08T07:55:41;99374.67;;;25.22;37.08
14966;BME280;7577;45.226;5.798;2023-08-08T07:58:11;99373.28;;;25.22;37.05
14966;BME280;7577;45.226;5.798;2023-08-08T08:00:41;99369.92;;;25.23;37.01
14966;BME280;7577;45.226;5.798;2023-08-08T08:03:11;99370.49;;;25.22;37.01
14966;BME280;7577;45.226;5.798;2023-08-08T08:05:41;99364.92;;;25.22;37.01
14966;BME280;7577;45.226;5.798;2023-08-08T08:08:12;99362.35;;;25.23;37.00
14966;BME280;7577;45.226;5.798;2023-08-08T08:10:43;99360.39;;;25.24;36.98
14966;BME280;7577;45.226;5.798;2023-08-08T08:13:14;99358.17;;;25.23;36.97
14966;BME280;7577;45.226;5.798;2023-08-08T08:15:44;99355.38;;;25.23;36.96
14966;BME280;7577;45.226;5.798;2023-08-08T08:20:52;99350.50;;;25.26;36.94
14966;BME280;7577;45.226;5.798;2023-08-08T08:23:24;99357.60;;;25.24;36.96
14966;BME280;7577;45.226;5.798;2023-08-08T08:25:54;99352.81;;;25.24;36.92
14966;BME280;7577;45.226;5.798;2023-08-08T08:28:24;99349.23;;;25.24;36.94
14966;BME280;7577;45.226;5.798;2023-08-08T08:30:55;99350.03;;;25.24;36.91
14966;BME280;7577;45.226;5.798;2023-08-08T08:33:25;99345.27;;;25.25;36.90
14966;BME280;7577;45.226;5.798;2023-08-08T08:35:55;99339.70;;;25.25;36.88
14966;BME280;7577;45.226;5.798;2023-08-08T08:38:25;99346.09;;;25.25;36.86
14966;BME280;7577;45.226;5.798;2023-08-08T08:40:58;99348.28;;;25.26;36.85
14966;BME280;7577;45.226;5.798;2023-08-08T08:43:28;99349.11;;;25.26;36.85
14966;BME280;7577;45.226;5.798;2023-08-08T08:46:01;99343.31;;;25.25;36.85
14966;BME280;7577;45.226;5.798;2023-08-08T08:48:32;99342.14;;;25.26;36.84
14966;BME280;7577;45.226;5.798;2023-08-08T08:51:03;99339.70;;;25.25;36.82
14966;BME280;7577;45.226;5.798;2023-08-08T08:56:12;99324.48;;;25.28;36.78
14966;BME280;7577;45.226;5.798;2023-08-08T08:58:42;99326.71;;;25.29;36.74
14966;BME280;7577;45.226;5.798;2023-08-08T09:01:12;99323.09;;;25.28;36.79
14966;BME280;7577;45.226;5.798;2023-08-08T09:03:44;99320.31;;;25.28;36.76
14966;BME280;7577;45.226;5.798;2023-08-08T09:06:15;99324.48;;;25.28;36.76
14966;BME280;7577;45.226;5.798;2023-08-08T09:08:47;99320.56;;;25.29;36.74
14966;BME280;7577;45.226;5.798;2023-08-08T09:11:18;99320.56;;;25.29;36.75
14966;BME280;7577;45.226;5.798;2023-08-08T09:13:48;99319.17;;;25.29;36.74
14966;BME280;7577;45.226;5.798;2023-08-08T09:19:00;99313.69;;;25.33;36.73
14966;BME280;7577;45.226;5.798;2023-08-08T09:21:32;99310.42;;;25.31;36.73
14966;BME280;7577;45.226;5.798;2023-08-08T09:24:02;99304.84;;;25.31;36.73
14966;BME280;7577;45.226;5.798;2023-08-08T09:26:33;99299.74;;;25.33;36.69
14966;BME280;7577;45.226;5.798;2023-08-08T09:29:04;99299.74;;;25.33;36.67
14966;BME280;7577;45.226;5.798;2023-08-08T09:31:36;99294.52;;;25.31;36.70
14966;BME280;7577;45.226;5.798;2023-08-08T09:34:06;99285.58;;;25.32;36.67
14966;BME280;7577;45.226;5.798;2023-08-08T09:36:37;99283.01;;;25.33;36.67
14966;BME280;7577;45.226;5.798;2023-08-08T09:39:07;99290.42;;;25.35;36.62
14966;BME280;7577;45.226;5.798;2023-08-08T09:41:37;99283.45;;;25.35;36.58
14966;BME280;7577;45.226;5.798;2023-08-08T09:44:09;99274.73;;;25.36;36.56
14966;BME280;7577;45.226;5.798;2023-08-08T09:46:40;99272.77;;;25.37;36.56
14966;BME280;7577;45.226;5.798;2023-08-08T09:49:11;99273.34;;;25.36;36.57
14966;BME280;7577;45.226;5.798;2023-08-08T09:51:43;99275.56;;;25.37;36.54
14966;BME280;7577;45.226;5.798;2023-08-08T09:54:14;99274.73;;;25.36;36.53
14966;BME280;7577;45.226;5.798;2023-08-08T09:56:45;99269.63;;;25.38;36.49
14966;BME280;7577;45.226;5.798;2023-08-08T09:59:17;99273.44;;;25.40;36.46
14966;BME280;7577;45.226;5.798;2023-08-08T10:01:49;99269.86;;;25.39;36.49
14966;BME280;7577;45.226;5.798;2023-08-08T10:04:22;99265.67;;;25.39;36.47
14966;BME280;7577;45.226;5.798;2023-08-08T10:06:53;99267.86;;;25.40;36.44
14966;BME280;7577;45.226;5.798;2023-08-08T10:09:24;99266.47;;;25.40;36.44
14966;BME280;7577;45.226;5.798;2023-08-08T10:11:55;99263.93;;;25.41;36.46
14966;BME280;7577;45.226;5.798;2023-08-08T10:14:30;99264.72;;;25.41;36.43
14966;BME280;7577;45.226;5.798;2023-08-08T10:17:03;99264.15;;;25.42;36.43
14966;BME280;7577;45.226;5.798;2023-08-08T10:19:35;99259.97;;;25.42;36.37
14966;BME280;7577;45.226;5.798;2023-08-08T10:24:48;99256.92;;;25.47;36.31
14966;BME280;7577;45.226;5.798;2023-08-08T10:27:30;99256.09;;;25.46;36.24
14966;BME280;7577;45.226;5.798;2023-08-08T10:30:05;99258.89;;;25.46;36.23
14966;BME280;7577;45.226;5.798;2023-08-08T10:32:42;99254.35;;;25.48;36.22
14966;BME280;7577;45.226;5.798;2023-08-08T10:35:12;99254.13;;;25.47;36.22
14966;BME280;7577;45.226;5.798;2023-08-08T10:37:53;99249.50;;;25.45;36.23
14966;BME280;7577;45.226;5.798;2023-08-08T10:40:23;99243.92;;;25.45;36.26
14966;BME280;7577;45.226;5.798;2023-08-08T10:42:53;99250.52;;;25.46;36.23
14966;BME280;7577;45.226;5.798;2023-08-08T10:48:10;99248.64;;;25.50;36.16
14966;BME280;7577;45.226;5.798;2023-08-08T10:50:41;99255.05;;;25.51;36.10
14966;BME280;7577;45.226;5.798;2023-08-08T10:53:11;99251.44;;;25.50;36.11
14966;BME280;7577;45.226;5.798;2023-08-08T10:55:43;99252.61;;;25.49;36.13
14966;BME280;7577;45.226;5.798;2023-08-08T10:58:15;99248.77;;;25.48;36.12
14966;BME280;7577;45.226;5.798;2023-08-08T11:00:47;99253.56;;;25.47;36.15
14966;BME280;7577;45.226;5.798;2023-08-08T11:03:18;99239.27;;;25.49;36.08
14966;BME280;7577;45.226;5.798;2023-08-08T11:05:49;99236.22;;;25.48;36.13
14966;BME280;7577;45.226;5.798;2023-08-08T11:08:20;99237.39;;;25.47;36.12
14966;BME280;7577;45.226;5.798;2023-08-08T11:10:53;99228.89;;;25.49;36.08
14966;BME280;7577;45.226;5.798;2023-08-08T11:13:23;99215.17;;;25.50;36.07
14966;BME280;7577;45.226;5.798;2023-08-08T11:18:31;99207.36;;;25.56;36.04
14966;BME280;7577;45.226;5.798;2023-08-08T11:21:09;99212.50;;;25.54;36.06
14966;BME280;7577;45.226;5.798;2023-08-08T11:23:40;99206.31;;;25.54;36.07
14966;BME280;7577;45.226;5.798;2023-08-08T11:26:12;99196.55;;;25.54;36.04
14966;BME280;7577;45.226;5.798;2023-08-08T11:28:49;99188.66;;;25.56;36.00
14966;BME280;7577;45.226;5.798;2023-08-08T11:31:21;99193.41;;;25.56;36.01
14966;BME280;7577;45.226;5.798;2023-08-08T11:33:53;99193.63;;;25.57;36.01
14966;BME280;7577;45.226;5.798;2023-08-08T11:36:24;99199.21;;;25.57;35.95
14966;BME280;7577;45.226;5.798;2023-08-08T11:38:55;99195.49;;;25.59;35.88
14966;BME280;7577;45.226;5.798;2023-08-08T11:41:26;99183.73;;;25.59;35.83
14966;BME280;7577;45.226;5.798;2023-08-08T11:43:57;99175.02;;;25.61;35.78
14966;BME280;7577;45.226;5.798;2023-08-08T11:46:28;99171.08;;;25.62;35.76
14966;BME280;7577;45.226;5.798;2023-08-08T11:49:04;99164.10;;;25.62;35.73
14966;BME280;7577;45.226;5.798;2023-08-08T11:51:35;99162.70;;;25.62;35.69
14966;BME280;7577;45.226;5.798;2023-08-08T11:54:06;99169.08;;;25.62;35.73
14966;BME280;7577;45.226;5.798;2023-08-08T11:56:37;99161.31;;;25.62;35.76
14966;BME280;7577;45.226;5.798;2023-08-08T11:59:07;99166.28;;;25.62;35.65
14966;BME280;7577;45.226;5.798;2023-08-08T12:01:42;99171.43;;;25.60;35.66
14966;BME280;7577;45.226;5.798;2023-08-08T12:04:13;99164.89;;;25.62;35.63
14966;BME280;7577;45.226;5.798;2023-08-08T12:06:45;99169.30;;;25.63;35.66
14966;BME280;7577;45.226;5.798;2023-08-08T12:09:15;99159.91;;;25.62;35.62
14966;BME280;7577;45.226;5.798;2023-08-08T12:11:47;99162.10;;;25.62;35.67
14966;BME280;7577;45.226;5.798;2023-08-08T12:14:18;99156.73;;;25.63;35.60
14966;BME280;7577;45.226;5.798;2023-08-08T12:19:26;99156.72;;;25.69;35.60
14966;BME280;7577;45.226;5.798;2023-08-08T12:21:58;99153.81;;;25.66;35.66
14966;BME280;7577;45.226;5.798;2023-08-08T12:24:28;99143.91;;;25.68;35.70
14966;BME280;7577;45.226;5.798;2023-08-08T12:26:58;99145.91;;;25.68;35.68
14966;BME280;7577;45.226;5.798;2023-08-08T12:29:28;99144.60;;;25.71;35.59
14966;BME280;7577;45.226;5.798;2023-08-08T12:31:58;99151.58;;;25.71;35.63
14966;BME280;7577;45.226;5.798;2023-08-08T12:34:27;99149.00;;;25.72;35.58
14966;BME280;7577;45.226;5.798;2023-08-08T12:36:58;99143.67;;;25.73;35.60
14966;BME280;7577;45.226;5.798;2023-08-08T12:39:28;99147.48;;;25.75;35.67
14966;BME280;7577;45.226;5.798;2023-08-08T12:41:58;99147.48;;;25.75;35.66
14966;BME280;7577;45.226;5.798;2023-08-08T12:44:28;99145.28;;;25.74;35.71
14966;BME280;7577;45.226;5.798;2023-08-08T12:46:58;99145.73;;;25.76;35.69
14966;BME280;7577;45.226;5.798;2023-08-08T12:49:28;99127.37;;;25.75;35.73
14966;BME280;7577;45.226;5.798;2023-08-08T12:51:58;99121.08;;;25.78;35.75
14966;BME280;7577;45.226;5.798;2023-08-08T12:54:28;99126.05;;;25.79;35.73
14966;BME280;7577;45.226;5.798;2023-08-08T12:56:59;99122.33;;;25.81;35.75
14966;BME280;7577;45.226;5.798;2023-08-08T12:59:29;99122.55;;;25.82;35.75
14966;BME280;7577;45.226;5.798;2023-08-08T13:01:59;99116.39;;;25.82;35.74
14966;BME280;7577;45.226;5.798;2023-08-08T13:04:29;99111.47;;;25.85;35.71
14966;BME280;7577;45.226;5.798;2023-08-08T13:06:59;99108.92;;;25.86;35.73
14966;BME280;7577;45.226;5.798;2023-08-08T13:09:29;99115.52;;;25.88;35.78
14966;BME280;7577;45.226;5.798;2023-08-08T13:11:59;99117.16;;;25.89;35.71
14966;BME280;7577;45.226;5.798;2023-08-08T13:14:29;99122.96;;;25.90;35.76
14966;BME280;7577;45.226;5.798;2023-08-08T13:19:37;99103.17;;;25.95;35.75
14966;BME280;7577;45.226;5.798;2023-08-08T13:22:07;99112.37;;;25.95;35.76
14966;BME280;7577;45.226;5.798;2023-08-08T13:24:37;99113.62;;;25.98;35.76
14966;BME280;7577;45.226;5.798;2023-08-08T13:27:08;99110.48;;;25.99;35.73
14966;BME280;7577;45.226;5.798;2023-08-08T13:29:38;99114.28;;;26.01;35.73
14966;BME280;7577;45.226;5.798;2023-08-08T13:32:08;99114.38;;;26.04;35.75
14966;BME280;7577;45.226;5.798;2023-08-08T13:34:38;99130.17;;;26.06;35.81
14966;BME280;7577;45.226;5.798;2023-08-08T13:37:09;99118.44;;;26.07;35.79
14966;BME280;7577;45.226;5.798;2023-08-08T13:39:39;99120.62;;;26.07;35.78
14966;BME280;7577;45.226;5.798;2023-08-08T13:42:10;99123.27;;;26.10;35.78
14966;BME280;7577;45.226;5.798;2023-08-08T13:47:17;99094.70;;;26.16;35.83
14966;BME280;7577;45.226;5.798;2023-08-08T13:49:48;99095.31;;;26.16;35.83
14966;BME280;7577;45.226;5.798;2023-08-08T13:52:18;99089.37;;;26.17;35.82
14966;BME280;7577;45.226;5.798;2023-08-08T13:54:48;99089.22;;;26.20;35.79
14966;BME280;7577;45.226;5.798;2023-08-08T13:57:18;99082.10;;;26.22;35.77
14966;BME280;7577;45.226;5.798;2023-08-08T13:59:48;99082.53;;;26.24;35.73
14966;BME280;7577;45.226;5.798;2023-08-08T14:02:20;99077.98;;;26.26;35.79
14966;BME280;7577;45.226;5.798;2023-08-08T14:04:50;99077.05;;;26.28;35.75
14966;BME280;7577;45.226;5.798;2023-08-08T14:07:20;99074.90;;;26.31;35.73
14966;BME280;7577;45.226;5.798;2023-08-08T14:09:51;99070.14;;;26.31;35.71
14966;BME280;7577;45.226;5.798;2023-08-08T14:12:21;99076.97;;;26.34;35.73
14966;BME280;7577;45.226;5.798;2023-08-08T14:14:51;99080.20;;;26.36;35.71
14966;BME280;7577;45.226;5.798;2023-08-08T14:20:02;99075.96;;;26.42;35.69
14966;BME280;7577;45.226;5.798;2023-08-08T14:22:35;99082.73;;;26.41;35.68
14966;BME280;7577;45.226;5.798;2023-08-08T14:25:06;99077.00;;;26.43;35.63
14966;BME280;7577;45.226;5.798;2023-08-08T14:27:36;99076.03;;;26.45;35.61
14966;BME280;7577;45.226;5.798;2023-08-08T14:30:08;99076.09;;;26.49;35.60